< < Back
Terminal Aerodrome Forecast


Current Version              Previous Versions:   1  2  3  4  5  6  7  8  9  

Terminal Aerodrome Forecast

759
FTUS42 KFFC 012100 AAB
TAFCSG
TAF AMD
KCSG 012142Z 0122/0218 VRB05KT P6SM VCSH BKN060 BKN150
      TEMPO 0122/0124 VRB15G30KT 3SM TSRA BKN045CB
     FM020100 20003KT P6SM FEW060 SCT150 SCT250
     FM021400 29005KT P6SM SCT035 SCT150=

Latest METAR

062
SAUS70 KWBC 021400 RRJ
MTRCSG
METAR KCSG 021351Z 00000KT 10SM CLR 28/22 A3013 RMK AO2 SLP196
T02780222


USA.gov is the U.S. government's official web portal to all federal, state and local government web resources and services.